Weather at MercyOne Dubuque Medical Center Heliport

Public forecast

Using degrees Fahrenheit for public forecast. Weather courtesy of forecast.io.

Closest aviation weather report (METAR) to MercyOne Dubuque Medical Center Heliport

Closest report is Dubuque Regional Airport, 5.6 nm (10.3 km) SSW. Retrieved 2021/06/13 08:53 UTC (1 hour ago):

KDBQ 130853Z AUTO 36003KT 10SM CLR 16/09 A3001 RMK AO2 SLP158 T01560094 53004

Closest aviation forecast (TAF) to MercyOne Dubuque Medical Center Heliport

Closest forecast is Dubuque Regional Airport, 5.6 nm (10.3 km) SSW. Retrieved 2021/06/13 06:22 UTC (4 hours ago):

TAF KDBQ 130520Z 1306/1406 34005KT P6SM SKC FM140200 23005KT P6SM SKC